sensor_id;sensor_type;location;lat;lon;timestamp;P1;durP1;ratioP1;P2;durP2;ratioP2
7759;SDS011;3924;48.830;9.262;2022-07-25T00:01:10;6.40;;;5.87;;
7759;SDS011;3924;48.830;9.262;2022-07-25T00:03:37;6.20;;;5.60;;
7759;SDS011;3924;48.830;9.262;2022-07-25T00:06:05;6.00;;;5.50;;
7759;SDS011;3924;48.830;9.262;2022-07-25T00:08:38;6.03;;;5.53;;
7759;SDS011;3924;48.830;9.262;2022-07-25T00:11:05;6.83;;;6.13;;
7759;SDS011;3924;48.830;9.262;2022-07-25T00:13:31;6.63;;;5.93;;
7759;SDS011;3924;48.830;9.262;2022-07-25T00:15:58;6.50;;;5.90;;
7759;SDS011;3924;48.830;9.262;2022-07-25T00:18:24;6.40;;;5.90;;
7759;SDS011;3924;48.830;9.262;2022-07-25T00:20:52;10.10;;;5.80;;
7759;SDS011;3924;48.830;9.262;2022-07-25T00:23:18;6.37;;;5.73;;
7759;SDS011;3924;48.830;9.262;2022-07-25T00:25:45;6.60;;;5.97;;
7759;SDS011;3924;48.830;9.262;2022-07-25T00:28:11;7.03;;;6.40;;
7759;SDS011;3924;48.830;9.262;2022-07-25T00:30:38;6.20;;;5.67;;
7759;SDS011;3924;48.830;9.262;2022-07-25T00:33:04;6.30;;;5.77;;
7759;SDS011;3924;48.830;9.262;2022-07-25T00:35:31;6.27;;;5.77;;
7759;SDS011;3924;48.830;9.262;2022-07-25T00:37:57;5.90;;;5.40;;
7759;SDS011;3924;48.830;9.262;2022-07-25T00:40:24;6.73;;;5.57;;
7759;SDS011;3924;48.830;9.262;2022-07-25T00:42:50;6.77;;;5.53;;
7759;SDS011;3924;48.830;9.262;2022-07-25T00:45:17;9.00;;;5.77;;
7759;SDS011;3924;48.830;9.262;2022-07-25T00:47:43;7.57;;;5.87;;
7759;SDS011;3924;48.830;9.262;2022-07-25T00:50:10;6.60;;;6.03;;
7759;SDS011;3924;48.830;9.262;2022-07-25T00:52:36;6.50;;;5.90;;
7759;SDS011;3924;48.830;9.262;2022-07-25T00:55:03;6.67;;;5.67;;
7759;SDS011;3924;48.830;9.262;2022-07-25T00:57:30;6.50;;;5.90;;
7759;SDS011;3924;48.830;9.262;2022-07-25T00:59:57;6.00;;;5.40;;
7759;SDS011;3924;48.830;9.262;2022-07-25T01:02:23;7.37;;;5.97;;
7759;SDS011;3924;48.830;9.262;2022-07-25T01:04:50;6.30;;;5.70;;
7759;SDS011;3924;48.830;9.262;2022-07-25T01:07:17;6.00;;;5.40;;
7759;SDS011;3924;48.830;9.262;2022-07-25T01:09:43;5.90;;;5.40;;
7759;SDS011;3924;48.830;9.262;2022-07-25T01:12:10;6.33;;;5.73;;
7759;SDS011;3924;48.830;9.262;2022-07-25T01:14:36;6.37;;;5.83;;
7759;SDS011;3924;48.830;9.262;2022-07-25T01:17:03;6.10;;;5.60;;
7759;SDS011;3924;48.830;9.262;2022-07-25T01:19:30;6.23;;;5.20;;
7759;SDS011;3924;48.830;9.262;2022-07-25T01:21:57;7.03;;;5.63;;
7759;SDS011;3924;48.830;9.262;2022-07-25T01:24:23;6.67;;;6.07;;
7759;SDS011;3924;48.830;9.262;2022-07-25T01:26:50;6.10;;;5.60;;
7759;SDS011;3924;48.830;9.262;2022-07-25T01:29:16;5.70;;;5.20;;
7759;SDS011;3924;48.830;9.262;2022-07-25T01:31:43;6.07;;;5.33;;
7759;SDS011;3924;48.830;9.262;2022-07-25T01:34:09;5.93;;;5.43;;
7759;SDS011;3924;48.830;9.262;2022-07-25T01:36:36;5.67;;;5.27;;
7759;SDS011;3924;48.830;9.262;2022-07-25T01:39:02;7.43;;;5.67;;
7759;SDS011;3924;48.830;9.262;2022-07-25T01:41:29;6.20;;;5.70;;
7759;SDS011;3924;48.830;9.262;2022-07-25T01:43:56;6.00;;;5.50;;
7759;SDS011;3924;48.830;9.262;2022-07-25T01:46:22;5.57;;;5.07;;
7759;SDS011;3924;48.830;9.262;2022-07-25T01:48:49;5.60;;;5.10;;
7759;SDS011;3924;48.830;9.262;2022-07-25T01:51:15;7.33;;;6.60;;
7759;SDS011;3924;48.830;9.262;2022-07-25T01:53:45;5.90;;;5.30;;
7759;SDS011;3924;48.830;9.262;2022-07-25T01:56:13;6.03;;;5.43;;
7759;SDS011;3924;48.830;9.262;2022-07-25T01:58:40;7.77;;;5.37;;
7759;SDS011;3924;48.830;9.262;2022-07-25T02:01:06;5.80;;;5.30;;
7759;SDS011;3924;48.830;9.262;2022-07-25T02:03:33;5.90;;;5.30;;
7759;SDS011;3924;48.830;9.262;2022-07-25T02:06:00;6.07;;;5.50;;
7759;SDS011;3924;48.830;9.262;2022-07-25T02:08:29;6.40;;;5.73;;
7759;SDS011;3924;48.830;9.262;2022-07-25T02:10:58;6.33;;;5.67;;
7759;SDS011;3924;48.830;9.262;2022-07-25T02:13:25;5.97;;;5.53;;
7759;SDS011;3924;48.830;9.262;2022-07-25T02:15:57;6.17;;;5.57;;
7759;SDS011;3924;48.830;9.262;2022-07-25T02:36:50;6.93;;;5.90;;
7759;SDS011;3924;48.830;9.262;2022-07-25T02:42:56;6.27;;;5.40;;
7759;SDS011;3924;48.830;9.262;2022-07-25T02:45:22;5.50;;;5.00;;
7759;SDS011;3924;48.830;9.262;2022-07-25T02:47:49;6.23;;;5.63;;
7759;SDS011;3924;48.830;9.262;2022-07-25T02:50:16;6.10;;;5.60;;
7759;SDS011;3924;48.830;9.262;2022-07-25T02:52:42;5.10;;;4.70;;
7759;SDS011;3924;48.830;9.262;2022-07-25T02:55:09;7.00;;;5.27;;
7759;SDS011;3924;48.830;9.262;2022-07-25T02:57:37;5.97;;;5.43;;
7759;SDS011;3924;48.830;9.262;2022-07-25T03:00:04;6.60;;;5.60;;
7759;SDS011;3924;48.830;9.262;2022-07-25T03:02:32;7.20;;;5.37;;
7759;SDS011;3924;48.830;9.262;2022-07-25T03:04:58;7.97;;;5.83;;
7759;SDS011;3924;48.830;9.262;2022-07-25T03:07:24;6.50;;;5.90;;
7759;SDS011;3924;48.830;9.262;2022-07-25T03:09:51;6.03;;;5.20;;
7759;SDS011;3924;48.830;9.262;2022-07-25T03:12:17;8.23;;;5.50;;
7759;SDS011;3924;48.830;9.262;2022-07-25T03:14:44;5.83;;;5.27;;
7759;SDS011;3924;48.830;9.262;2022-07-25T03:17:10;5.83;;;5.10;;
7759;SDS011;3924;48.830;9.262;2022-07-25T03:19:37;6.37;;;5.70;;
7759;SDS011;3924;48.830;9.262;2022-07-25T03:22:03;8.83;;;5.80;;
7759;SDS011;3924;48.830;9.262;2022-07-25T03:24:30;6.00;;;5.40;;
7759;SDS011;3924;48.830;9.262;2022-07-25T03:26:56;6.43;;;5.83;;
7759;SDS011;3924;48.830;9.262;2022-07-25T03:29:23;6.43;;;5.93;;
7759;SDS011;3924;48.830;9.262;2022-07-25T03:31:49;6.10;;;5.60;;
7759;SDS011;3924;48.830;9.262;2022-07-25T03:34:16;5.73;;;5.33;;
7759;SDS011;3924;48.830;9.262;2022-07-25T03:36:42;6.70;;;6.20;;
7759;SDS011;3924;48.830;9.262;2022-07-25T03:39:09;6.37;;;5.77;;
7759;SDS011;3924;48.830;9.262;2022-07-25T03:41:35;6.30;;;5.70;;
7759;SDS011;3924;48.830;9.262;2022-07-25T03:44:02;8.50;;;6.20;;
7759;SDS011;3924;48.830;9.262;2022-07-25T03:46:29;6.90;;;6.30;;
7759;SDS011;3924;48.830;9.262;2022-07-25T03:48:56;5.90;;;5.40;;
7759;SDS011;3924;48.830;9.262;2022-07-25T03:51:22;6.40;;;5.80;;
7759;SDS011;3924;48.830;9.262;2022-07-25T03:53:49;6.87;;;6.33;;
7759;SDS011;3924;48.830;9.262;2022-07-25T03:56:29;10.30;;;6.30;;
7759;SDS011;3924;48.830;9.262;2022-07-25T03:59:09;7.70;;;6.33;;
7759;SDS011;3924;48.830;9.262;2022-07-25T04:01:37;8.27;;;5.67;;
7759;SDS011;3924;48.830;9.262;2022-07-25T04:04:04;7.77;;;5.60;;
7759;SDS011;3924;48.830;9.262;2022-07-25T04:06:31;6.23;;;5.73;;
7759;SDS011;3924;48.830;9.262;2022-07-25T04:08:57;6.23;;;5.73;;
7759;SDS011;3924;48.830;9.262;2022-07-25T04:11:24;6.00;;;5.50;;
7759;SDS011;3924;48.830;9.262;2022-07-25T04:13:50;8.83;;;6.63;;
7759;SDS011;3924;48.830;9.262;2022-07-25T04:16:17;6.90;;;6.20;;
7759;SDS011;3924;48.830;9.262;2022-07-25T04:18:48;7.23;;;6.17;;
7759;SDS011;3924;48.830;9.262;2022-07-25T04:21:16;6.97;;;6.37;;
7759;SDS011;3924;48.830;9.262;2022-07-25T04:23:43;5.97;;;5.47;;
7759;SDS011;3924;48.830;9.262;2022-07-25T04:26:10;7.40;;;5.93;;
7759;SDS011;3924;48.830;9.262;2022-07-25T04:28:36;9.53;;;6.40;;
7759;SDS011;3924;48.830;9.262;2022-07-25T04:31:03;7.03;;;6.37;;
7759;SDS011;3924;48.830;9.262;2022-07-25T04:33:29;6.67;;;6.00;;
7759;SDS011;3924;48.830;9.262;2022-07-25T04:35:56;8.53;;;6.50;;
7759;SDS011;3924;48.830;9.262;2022-07-25T04:38:22;6.60;;;6.00;;
7759;SDS011;3924;48.830;9.262;2022-07-25T04:40:49;8.17;;;6.23;;
7759;SDS011;3924;48.830;9.262;2022-07-25T04:43:15;6.60;;;5.90;;
7759;SDS011;3924;48.830;9.262;2022-07-25T04:45:42;8.03;;;6.43;;
7759;SDS011;3924;48.830;9.262;2022-07-25T04:48:08;6.73;;;6.03;;
7759;SDS011;3924;48.830;9.262;2022-07-25T04:50:35;7.30;;;6.13;;
7759;SDS011;3924;48.830;9.262;2022-07-25T04:53:01;6.30;;;5.70;;
7759;SDS011;3924;48.830;9.262;2022-07-25T04:55:28;6.87;;;6.13;;
7759;SDS011;3924;48.830;9.262;2022-07-25T04:57:54;6.70;;;6.10;;
7759;SDS011;3924;48.830;9.262;2022-07-25T05:00:21;7.20;;;6.13;;
7759;SDS011;3924;48.830;9.262;2022-07-25T05:02:49;7.30;;;6.30;;
7759;SDS011;3924;48.830;9.262;2022-07-25T05:05:17;7.40;;;6.70;;
7759;SDS011;3924;48.830;9.262;2022-07-25T05:07:47;15.13;;;6.60;;
7759;SDS011;3924;48.830;9.262;2022-07-25T05:10:15;7.87;;;6.37;;
7759;SDS011;3924;48.830;9.262;2022-07-25T05:12:42;9.70;;;6.33;;
7759;SDS011;3924;48.830;9.262;2022-07-25T05:15:08;7.43;;;6.37;;
7759;SDS011;3924;48.830;9.262;2022-07-25T05:17:35;7.60;;;6.90;;
7759;SDS011;3924;48.830;9.262;2022-07-25T05:20:01;9.57;;;6.57;;
7759;SDS011;3924;48.830;9.262;2022-07-25T05:22:28;15.73;;;6.60;;
7759;SDS011;3924;48.830;9.262;2022-07-25T05:24:55;8.60;;;6.47;;
7759;SDS011;3924;48.830;9.262;2022-07-25T05:27:21;12.60;;;6.90;;
7759;SDS011;3924;48.830;9.262;2022-07-25T05:29:48;9.97;;;7.33;;
7759;SDS011;3924;48.830;9.262;2022-07-25T05:32:14;11.30;;;7.17;;
7759;SDS011;3924;48.830;9.262;2022-07-25T05:34:41;9.77;;;6.37;;
7759;SDS011;3924;48.830;9.262;2022-07-25T05:37:07;10.53;;;6.67;;
7759;SDS011;3924;48.830;9.262;2022-07-25T05:39:34;6.80;;;6.07;;
7759;SDS011;3924;48.830;9.262;2022-07-25T05:42:02;9.33;;;6.20;;
7759;SDS011;3924;48.830;9.262;2022-07-25T05:44:29;8.43;;;5.90;;
7759;SDS011;3924;48.830;9.262;2022-07-25T05:46:55;6.27;;;5.70;;
7759;SDS011;3924;48.830;9.262;2022-07-25T05:49:22;6.87;;;6.17;;
7759;SDS011;3924;48.830;9.262;2022-07-25T05:51:48;6.10;;;5.30;;
7759;SDS011;3924;48.830;9.262;2022-07-25T05:54:15;7.70;;;5.83;;
7759;SDS011;3924;48.830;9.262;2022-07-25T05:56:41;8.15;;;6.88;;
7759;SDS011;3924;48.830;9.262;2022-07-25T05:59:08;8.27;;;6.47;;
7759;SDS011;3924;48.830;9.262;2022-07-25T06:01:35;8.87;;;5.97;;
7759;SDS011;3924;48.830;9.262;2022-07-25T06:04:01;9.00;;;6.83;;
7759;SDS011;3924;48.830;9.262;2022-07-25T06:06:28;6.47;;;5.80;;
7759;SDS011;3924;48.830;9.262;2022-07-25T06:08:57;7.07;;;6.13;;
7759;SDS011;3924;48.830;9.262;2022-07-25T06:11:24;11.13;;;6.03;;
7759;SDS011;3924;48.830;9.262;2022-07-25T06:13:56;10.23;;;6.30;;
7759;SDS011;3924;48.830;9.262;2022-07-25T06:16:22;7.30;;;5.97;;
7759;SDS011;3924;48.830;9.262;2022-07-25T06:18:49;8.30;;;5.83;;
7759;SDS011;3924;48.830;9.262;2022-07-25T06:21:16;6.90;;;6.23;;
7759;SDS011;3924;48.830;9.262;2022-07-25T06:23:42;8.47;;;6.10;;
7759;SDS011;3924;48.830;9.262;2022-07-25T06:26:09;7.20;;;6.60;;
7759;SDS011;3924;48.830;9.262;2022-07-25T06:28:36;7.13;;;6.43;;
7759;SDS011;3924;48.830;9.262;2022-07-25T06:31:03;6.27;;;5.67;;
7759;SDS011;3924;48.830;9.262;2022-07-25T06:33:30;6.40;;;5.80;;
7759;SDS011;3924;48.830;9.262;2022-07-25T06:35:56;5.87;;;5.37;;
7759;SDS011;3924;48.830;9.262;2022-07-25T06:38:23;11.00;;;6.23;;
7759;SDS011;3924;48.830;9.262;2022-07-25T06:40:49;6.27;;;5.73;;
7759;SDS011;3924;48.830;9.262;2022-07-25T06:43:16;6.67;;;6.07;;
7759;SDS011;3924;48.830;9.262;2022-07-25T06:45:42;13.17;;;6.83;;
7759;SDS011;3924;48.830;9.262;2022-07-25T06:48:13;7.93;;;6.00;;
7759;SDS011;3924;48.830;9.262;2022-07-25T06:50:40;6.63;;;5.93;;
7759;SDS011;3924;48.830;9.262;2022-07-25T06:53:07;8.57;;;5.73;;
7759;SDS011;3924;48.830;9.262;2022-07-25T06:55:33;6.80;;;6.10;;
7759;SDS011;3924;48.830;9.262;2022-07-25T06:58:00;9.10;;;5.77;;
7759;SDS011;3924;48.830;9.262;2022-07-25T07:00:26;7.53;;;6.20;;
7759;SDS011;3924;48.830;9.262;2022-07-25T07:02:54;6.23;;;5.63;;
7759;SDS011;3924;48.830;9.262;2022-07-25T07:05:24;7.60;;;6.10;;
7759;SDS011;3924;48.830;9.262;2022-07-25T07:07:52;6.43;;;5.93;;
7759;SDS011;3924;48.830;9.262;2022-07-25T07:10:19;6.37;;;5.63;;
7759;SDS011;3924;48.830;9.262;2022-07-25T07:12:47;11.80;;;5.77;;
7759;SDS011;3924;48.830;9.262;2022-07-25T07:15:15;7.50;;;5.77;;
7759;SDS011;3924;48.830;9.262;2022-07-25T07:17:42;6.20;;;5.70;;
7759;SDS011;3924;48.830;9.262;2022-07-25T07:20:08;6.73;;;6.13;;
7759;SDS011;3924;48.830;9.262;2022-07-25T07:22:42;9.07;;;6.30;;
7759;SDS011;3924;48.830;9.262;2022-07-25T07:25:11;8.33;;;5.70;;
7759;SDS011;3924;48.830;9.262;2022-07-25T07:27:39;7.80;;;5.70;;
7759;SDS011;3924;48.830;9.262;2022-07-25T07:30:06;6.90;;;6.20;;
7759;SDS011;3924;48.830;9.262;2022-07-25T07:32:34;6.60;;;5.53;;
7759;SDS011;3924;48.830;9.262;2022-07-25T07:35:00;10.23;;;6.57;;
7759;SDS011;3924;48.830;9.262;2022-07-25T07:37:27;13.90;;;6.20;;
7759;SDS011;3924;48.830;9.262;2022-07-25T07:40:02;6.60;;;6.10;;
7759;SDS011;3924;48.830;9.262;2022-07-25T07:42:36;7.03;;;6.00;;
7759;SDS011;3924;48.830;9.262;2022-07-25T07:45:09;6.57;;;5.97;;
7759;SDS011;3924;48.830;9.262;2022-07-25T07:47:36;6.63;;;6.03;;
7759;SDS011;3924;48.830;9.262;2022-07-25T07:50:03;8.30;;;6.47;;
7759;SDS011;3924;48.830;9.262;2022-07-25T07:52:29;10.03;;;6.90;;
7759;SDS011;3924;48.830;9.262;2022-07-25T07:54:56;6.13;;;5.50;;
7759;SDS011;3924;48.830;9.262;2022-07-25T07:57:41;11.17;;;6.30;;
7759;SDS011;3924;48.830;9.262;2022-07-25T08:00:07;6.47;;;5.87;;
7759;SDS011;3924;48.830;9.262;2022-07-25T08:02:50;8.20;;;6.23;;
7759;SDS011;3924;48.830;9.262;2022-07-25T08:05:19;9.13;;;5.70;;
7759;SDS011;3924;48.830;9.262;2022-07-25T08:07:53;9.97;;;6.37;;
7759;SDS011;3924;48.830;9.262;2022-07-25T08:10:21;9.23;;;6.80;;
7759;SDS011;3924;48.830;9.262;2022-07-25T08:12:52;9.93;;;6.33;;
7759;SDS011;3924;48.830;9.262;2022-07-25T08:15:19;7.00;;;6.30;;
7759;SDS011;3924;48.830;9.262;2022-07-25T08:17:47;7.70;;;6.37;;
7759;SDS011;3924;48.830;9.262;2022-07-25T08:20:16;7.17;;;6.07;;
7759;SDS011;3924;48.830;9.262;2022-07-25T08:23:03;7.73;;;6.90;;
7759;SDS011;3924;48.830;9.262;2022-07-25T08:25:30;8.57;;;6.80;;
7759;SDS011;3924;48.830;9.262;2022-07-25T08:27:56;9.00;;;6.07;;
7759;SDS011;3924;48.830;9.262;2022-07-25T08:30:24;9.07;;;6.60;;
7759;SDS011;3924;48.830;9.262;2022-07-25T08:32:51;7.17;;;6.50;;
7759;SDS011;3924;48.830;9.262;2022-07-25T08:35:19;8.23;;;6.57;;
7759;SDS011;3924;48.830;9.262;2022-07-25T08:37:46;9.00;;;6.13;;
7759;SDS011;3924;48.830;9.262;2022-07-25T08:40:14;10.47;;;7.10;;
7759;SDS011;3924;48.830;9.262;2022-07-25T08:42:43;8.53;;;6.50;;
7759;SDS011;3924;48.830;9.262;2022-07-25T08:45:10;10.23;;;5.90;;
7759;SDS011;3924;48.830;9.262;2022-07-25T08:47:45;6.97;;;6.27;;
7759;SDS011;3924;48.830;9.262;2022-07-25T08:50:14;6.53;;;6.03;;
7759;SDS011;3924;48.830;9.262;2022-07-25T08:52:43;7.93;;;7.23;;
7759;SDS011;3924;48.830;9.262;2022-07-25T08:55:13;7.53;;;6.83;;
7759;SDS011;3924;48.830;9.262;2022-07-25T08:57:47;7.30;;;6.43;;
7759;SDS011;3924;48.830;9.262;2022-07-25T09:00:17;8.33;;;6.00;;
7759;SDS011;3924;48.830;9.262;2022-07-25T09:02:50;10.27;;;6.87;;
7759;SDS011;3924;48.830;9.262;2022-07-25T09:05:19;9.67;;;6.47;;
7759;SDS011;3924;48.830;9.262;2022-07-25T09:07:50;9.10;;;6.13;;
7759;SDS011;3924;48.830;9.262;2022-07-25T09:10:19;9.73;;;6.10;;
7759;SDS011;3924;48.830;9.262;2022-07-25T09:12:51;7.37;;;5.97;;
7759;SDS011;3924;48.830;9.262;2022-07-25T09:15:31;6.83;;;6.20;;
7759;SDS011;3924;48.830;9.262;2022-07-25T09:18:06;6.40;;;5.80;;
7759;SDS011;3924;48.830;9.262;2022-07-25T09:20:46;6.57;;;5.97;;
7759;SDS011;3924;48.830;9.262;2022-07-25T09:28:30;9.00;;;6.70;;
7759;SDS011;3924;48.830;9.262;2022-07-25T09:30:58;7.00;;;6.30;;
7759;SDS011;3924;48.830;9.262;2022-07-25T09:33:26;6.83;;;6.13;;
7759;SDS011;3924;48.830;9.262;2022-07-25T09:35:54;7.03;;;6.33;;
7759;SDS011;3924;48.830;9.262;2022-07-25T09:38:21;7.23;;;6.60;;
7759;SDS011;3924;48.830;9.262;2022-07-25T09:40:53;7.53;;;6.83;;
7759;SDS011;3924;48.830;9.262;2022-07-25T09:43:40;6.67;;;6.07;;
7759;SDS011;3924;48.830;9.262;2022-07-25T09:46:08;8.17;;;6.23;;
7759;SDS011;3924;48.830;9.262;2022-07-25T09:48:36;5.37;;;4.97;;
7759;SDS011;3924;48.830;9.262;2022-07-25T09:51:05;9.13;;;6.30;;
7759;SDS011;3924;48.830;9.262;2022-07-25T09:53:32;6.50;;;5.90;;
7759;SDS011;3924;48.830;9.262;2022-07-25T09:55:59;6.63;;;6.03;;
7759;SDS011;3924;48.830;9.262;2022-07-25T09:58:27;7.50;;;6.40;;
7759;SDS011;3924;48.830;9.262;2022-07-25T10:00:55;7.77;;;5.93;;
7759;SDS011;3924;48.830;9.262;2022-07-25T10:09:17;7.03;;;6.33;;
7759;SDS011;3924;48.830;9.262;2022-07-25T10:14:31;8.00;;;5.93;;
7759;SDS011;3924;48.830;9.262;2022-07-25T10:16:59;6.77;;;6.03;;
7759;SDS011;3924;48.830;9.262;2022-07-25T10:22:15;6.30;;;5.70;;
7759;SDS011;3924;48.830;9.262;2022-07-25T10:24:54;6.70;;;5.93;;
7759;SDS011;3924;48.830;9.262;2022-07-25T10:27:43;7.70;;;5.77;;
7759;SDS011;3924;48.830;9.262;2022-07-25T10:32:49;6.50;;;5.90;;
7759;SDS011;3924;48.830;9.262;2022-07-25T10:35:16;8.00;;;5.97;;
7759;SDS011;3924;48.830;9.262;2022-07-25T10:37:43;6.27;;;5.67;;
7759;SDS011;3924;48.830;9.262;2022-07-25T10:40:23;6.03;;;5.53;;
7759;SDS011;3924;48.830;9.262;2022-07-25T10:43:02;9.57;;;5.93;;
7759;SDS011;3924;48.830;9.262;2022-07-25T10:45:40;6.43;;;5.70;;
7759;SDS011;3924;48.830;9.262;2022-07-25T10:48:18;11.30;;;5.50;;
7759;SDS011;3924;48.830;9.262;2022-07-25T10:56:14;6.20;;;5.70;;
7759;SDS011;3924;48.830;9.262;2022-07-25T11:01:27;6.07;;;5.37;;
7759;SDS011;3924;48.830;9.262;2022-07-25T11:03:59;7.00;;;5.10;;
7759;SDS011;3924;48.830;9.262;2022-07-25T11:06:40;5.80;;;5.30;;
7759;SDS011;3924;48.830;9.262;2022-07-25T11:09:15;5.37;;;4.87;;
7759;SDS011;3924;48.830;9.262;2022-07-25T11:11:50;5.80;;;5.30;;
7759;SDS011;3924;48.830;9.262;2022-07-25T11:14:23;6.13;;;5.63;;
7759;SDS011;3924;48.830;9.262;2022-07-25T11:16:52;5.53;;;5.03;;
7759;SDS011;3924;48.830;9.262;2022-07-25T11:21:55;6.93;;;5.10;;
7759;SDS011;3924;48.830;9.262;2022-07-25T11:24:33;5.93;;;5.53;;
7759;SDS011;3924;48.830;9.262;2022-07-25T11:27:12;6.03;;;5.43;;
7759;SDS011;3924;48.830;9.262;2022-07-25T11:29:47;6.93;;;5.00;;
7759;SDS011;3924;48.830;9.262;2022-07-25T11:32:13;5.63;;;4.83;;
7759;SDS011;3924;48.830;9.262;2022-07-25T11:34:41;5.77;;;4.93;;
7759;SDS011;3924;48.830;9.262;2022-07-25T11:37:10;5.47;;;4.90;;
7759;SDS011;3924;48.830;9.262;2022-07-25T11:39:40;5.77;;;4.87;;
7759;SDS011;3924;48.830;9.262;2022-07-25T11:42:09;5.30;;;4.80;;
7759;SDS011;3924;48.830;9.262;2022-07-25T11:47:22;6.63;;;5.07;;
7759;SDS011;3924;48.830;9.262;2022-07-25T11:49:50;5.13;;;4.73;;
7759;SDS011;3924;48.830;9.262;2022-07-25T11:52:21;6.63;;;4.90;;
7759;SDS011;3924;48.830;9.262;2022-07-25T11:54:50;4.97;;;4.50;;
7759;SDS011;3924;48.830;9.262;2022-07-25T11:57:26;7.63;;;5.00;;
7759;SDS011;3924;48.830;9.262;2022-07-25T11:59:57;4.97;;;4.57;;
7759;SDS011;3924;48.830;9.262;2022-07-25T12:02:31;4.80;;;4.40;;
7759;SDS011;3924;48.830;9.262;2022-07-25T12:05:04;5.77;;;4.97;;
7759;SDS011;3924;48.830;9.262;2022-07-25T12:07:36;5.20;;;4.70;;
7759;SDS011;3924;48.830;9.262;2022-07-25T12:10:09;4.90;;;4.47;;
7759;SDS011;3924;48.830;9.262;2022-07-25T12:12:55;4.93;;;4.53;;
7759;SDS011;3924;48.830;9.262;2022-07-25T12:15:24;5.17;;;4.27;;
7759;SDS011;3924;48.830;9.262;2022-07-25T12:17:53;7.33;;;5.17;;
7759;SDS011;3924;48.830;9.262;2022-07-25T12:20:22;4.93;;;4.50;;
7759;SDS011;3924;48.830;9.262;2022-07-25T12:22:52;6.47;;;4.33;;
7759;SDS011;3924;48.830;9.262;2022-07-25T12:25:24;5.27;;;4.87;;
7759;SDS011;3924;48.830;9.262;2022-07-25T12:27:56;5.37;;;4.93;;
7759;SDS011;3924;48.830;9.262;2022-07-25T12:30:25;4.63;;;4.23;;
7759;SDS011;3924;48.830;9.262;2022-07-25T12:32:53;6.00;;;4.47;;
7759;SDS011;3924;48.830;9.262;2022-07-25T12:35:21;4.40;;;4.00;;
7759;SDS011;3924;48.830;9.262;2022-07-25T12:37:49;4.57;;;4.17;;
7759;SDS011;3924;48.830;9.262;2022-07-25T12:40:17;4.10;;;3.70;;
7759;SDS011;3924;48.830;9.262;2022-07-25T12:42:44;4.80;;;4.40;;
7759;SDS011;3924;48.830;9.262;2022-07-25T12:45:11;5.27;;;4.50;;
7759;SDS011;3924;48.830;9.262;2022-07-25T12:47:41;4.50;;;4.17;;
7759;SDS011;3924;48.830;9.262;2022-07-25T12:50:08;8.43;;;4.00;;
7759;SDS011;3924;48.830;9.262;2022-07-25T12:52:35;7.60;;;4.27;;
7759;SDS011;3924;48.830;9.262;2022-07-25T12:55:04;4.93;;;4.27;;
7759;SDS011;3924;48.830;9.262;2022-07-25T12:57:32;4.87;;;3.80;;
7759;SDS011;3924;48.830;9.262;2022-07-25T13:00:00;7.40;;;3.73;;
7759;SDS011;3924;48.830;9.262;2022-07-25T13:02:27;4.53;;;4.13;;
7759;SDS011;3924;48.830;9.262;2022-07-25T13:04:54;4.63;;;4.23;;
7759;SDS011;3924;48.830;9.262;2022-07-25T13:07:20;4.47;;;4.07;;
7759;SDS011;3924;48.830;9.262;2022-07-25T13:09:47;5.53;;;4.23;;
7759;SDS011;3924;48.830;9.262;2022-07-25T13:12:13;4.77;;;4.30;;
7759;SDS011;3924;48.830;9.262;2022-07-25T13:14:41;4.80;;;4.13;;
7759;SDS011;3924;48.830;9.262;2022-07-25T13:17:08;6.93;;;4.27;;
7759;SDS011;3924;48.830;9.262;2022-07-25T13:19:36;5.03;;;4.40;;
7759;SDS011;3924;48.830;9.262;2022-07-25T13:22:02;5.13;;;4.37;;
7759;SDS011;3924;48.830;9.262;2022-07-25T13:24:29;9.23;;;4.80;;
7759;SDS011;3924;48.830;9.262;2022-07-25T13:27:03;4.60;;;4.20;;
7759;SDS011;3924;48.830;9.262;2022-07-25T13:29:31;4.73;;;4.33;;
7759;SDS011;3924;48.830;9.262;2022-07-25T13:31:59;5.40;;;4.90;;
7759;SDS011;3924;48.830;9.262;2022-07-25T13:34:27;5.17;;;4.67;;
7759;SDS011;3924;48.830;9.262;2022-07-25T13:36:53;4.37;;;4.07;;
7759;SDS011;3924;48.830;9.262;2022-07-25T13:39:20;4.77;;;4.30;;
7759;SDS011;3924;48.830;9.262;2022-07-25T13:41:47;4.90;;;4.50;;
7759;SDS011;3924;48.830;9.262;2022-07-25T13:44:14;5.23;;;4.67;;
7759;SDS011;3924;48.830;9.262;2022-07-25T13:46:41;4.97;;;4.53;;
7759;SDS011;3924;48.830;9.262;2022-07-25T13:49:11;5.93;;;4.53;;
7759;SDS011;3924;48.830;9.262;2022-07-25T13:51:38;5.17;;;4.57;;
7759;SDS011;3924;48.830;9.262;2022-07-25T13:54:05;6.13;;;5.03;;
7759;SDS011;3924;48.830;9.262;2022-07-25T13:56:32;9.10;;;5.00;;
7759;SDS011;3924;48.830;9.262;2022-07-25T13:58:58;6.23;;;4.87;;
7759;SDS011;3924;48.830;9.262;2022-07-25T14:01:27;4.83;;;4.40;;
7759;SDS011;3924;48.830;9.262;2022-07-25T14:03:54;7.60;;;4.93;;
7759;SDS011;3924;48.830;9.262;2022-07-25T14:06:24;6.80;;;4.60;;
7759;SDS011;3924;48.830;9.262;2022-07-25T14:08:51;4.90;;;4.43;;
7759;SDS011;3924;48.830;9.262;2022-07-25T14:11:17;5.90;;;4.20;;
7759;SDS011;3924;48.830;9.262;2022-07-25T14:13:44;5.03;;;4.53;;
7759;SDS011;3924;48.830;9.262;2022-07-25T14:16:11;7.50;;;4.30;;
7759;SDS011;3924;48.830;9.262;2022-07-25T14:18:41;4.67;;;4.27;;
7759;SDS011;3924;48.830;9.262;2022-07-25T14:21:08;4.60;;;4.30;;
7759;SDS011;3924;48.830;9.262;2022-07-25T14:23:34;4.97;;;4.50;;
7759;SDS011;3924;48.830;9.262;2022-07-25T14:26:00;5.90;;;4.43;;
7759;SDS011;3924;48.830;9.262;2022-07-25T14:28:28;3.63;;;3.33;;
7759;SDS011;3924;48.830;9.262;2022-07-25T14:30:54;6.72;;;4.03;;
7759;SDS011;3924;48.830;9.262;2022-07-25T14:33:21;5.20;;;4.10;;
7759;SDS011;3924;48.830;9.262;2022-07-25T14:35:48;7.20;;;5.20;;
7759;SDS011;3924;48.830;9.262;2022-07-25T14:38:14;6.20;;;4.70;;
7759;SDS011;3924;48.830;9.262;2022-07-25T14:40:53;6.03;;;5.40;;
7759;SDS011;3924;48.830;9.262;2022-07-25T14:43:19;5.03;;;4.53;;
7759;SDS011;3924;48.830;9.262;2022-07-25T14:45:49;6.70;;;4.05;;
7759;SDS011;3924;48.830;9.262;2022-07-25T14:48:15;6.43;;;5.10;;
7759;SDS011;3924;48.830;9.262;2022-07-25T14:50:45;6.38;;;5.63;;
7759;SDS011;3924;48.830;9.262;2022-07-25T14:53:12;5.20;;;4.80;;
7759;SDS011;3924;48.830;9.262;2022-07-25T14:55:39;6.30;;;5.05;;
7759;SDS011;3924;48.830;9.262;2022-07-25T14:58:06;9.73;;;4.78;;
7759;SDS011;3924;48.830;9.262;2022-07-25T15:00:32;5.00;;;4.65;;
7759;SDS011;3924;48.830;9.262;2022-07-25T15:02:59;5.32;;;4.78;;
7759;SDS011;3924;48.830;9.262;2022-07-25T15:05:26;7.10;;;5.22;;
7759;SDS011;3924;48.830;9.262;2022-07-25T15:07:53;7.25;;;4.65;;
7759;SDS011;3924;48.830;9.262;2022-07-25T15:10:19;10.00;;;4.97;;
7759;SDS011;3924;48.830;9.262;2022-07-25T15:12:46;6.68;;;5.30;;
7759;SDS011;3924;48.830;9.262;2022-07-25T15:15:35;5.57;;;5.07;;
7759;SDS011;3924;48.830;9.262;2022-07-25T15:18:02;6.30;;;5.13;;
7759;SDS011;3924;48.830;9.262;2022-07-25T15:20:29;6.07;;;5.25;;
7759;SDS011;3924;48.830;9.262;2022-07-25T15:22:56;5.90;;;5.50;;
7759;SDS011;3924;48.830;9.262;2022-07-25T15:25:23;5.35;;;4.85;;
7759;SDS011;3924;48.830;9.262;2022-07-25T15:28:10;8.70;;;4.85;;
7759;SDS011;3924;48.830;9.262;2022-07-25T15:30:36;7.05;;;5.28;;
7759;SDS011;3924;48.830;9.262;2022-07-25T15:33:03;5.63;;;4.50;;
7759;SDS011;3924;48.830;9.262;2022-07-25T15:35:29;5.13;;;3.90;;
7759;SDS011;3924;48.830;9.262;2022-07-25T15:37:56;11.93;;;4.90;;
7759;SDS011;3924;48.830;9.262;2022-07-25T15:40:23;7.57;;;4.80;;
7759;SDS011;3924;48.830;9.262;2022-07-25T15:42:52;6.05;;;4.50;;
7759;SDS011;3924;48.830;9.262;2022-07-25T15:45:18;6.00;;;4.90;;
7759;SDS011;3924;48.830;9.262;2022-07-25T15:47:59;5.57;;;4.47;;
7759;SDS011;3924;48.830;9.262;2022-07-25T15:50:26;5.35;;;3.83;;
7759;SDS011;3924;48.830;9.262;2022-07-25T15:52:53;5.43;;;4.65;;
7759;SDS011;3924;48.830;9.262;2022-07-25T15:55:20;5.85;;;4.53;;
7759;SDS011;3924;48.830;9.262;2022-07-25T15:57:47;4.60;;;4.20;;
7759;SDS011;3924;48.830;9.262;2022-07-25T16:00:13;5.28;;;4.47;;
7759;SDS011;3924;48.830;9.262;2022-07-25T16:02:40;4.20;;;3.80;;
7759;SDS011;3924;48.830;9.262;2022-07-25T16:05:06;4.80;;;4.40;;
7759;SDS011;3924;48.830;9.262;2022-07-25T16:07:33;8.30;;;4.65;;
7759;SDS011;3924;48.830;9.262;2022-07-25T16:09:59;4.60;;;4.30;;
7759;SDS011;3924;48.830;9.262;2022-07-25T16:12:26;4.55;;;4.25;;
7759;SDS011;3924;48.830;9.262;2022-07-25T16:14:54;7.00;;;4.50;;
7759;SDS011;3924;48.830;9.262;2022-07-25T16:17:20;4.65;;;4.30;;